メインページ
METAR-TAF:

METAR-TAF

空港 :

サムスン, トルコ

緯度: 41-15-15N, 経度: 036-34-03E, 海抜: 5m

現時点の気象観測

当レポートは59分前の10:50(UTC)に作成
北/北西の風 14kt
気温 27°C
湿度 66%
気圧 1009 hPa
視程10km以上
高度3600ftの雲は散在している
高度10000ftの千切れ雲あり

METAR: LTFH 191050Z 33014KT 9999 SCT036 BKN100 27/20 Q1009 NOSIG

時間: 14:49 (11:49 UTC)

予報

当レポートは1時間9分前の10:40(UTC)に作成
予報は19日の 12時(UTC)から 19日の 21時(UTC)まで有効
北西の風 9kt
視程10km以上
高度3600ftの雲は散在している
高度10000ftの千切れ雲あり

TAF: LTFH 191040Z 1912/1921 32009KT 9999 SCT036 BKN100

4,000以上の空港の気象観測と天気予報(METAR報とTAF報)

利用可能な観測所は地図上に黄色い丸と赤い丸で示す。

丸の上にカーソルを重ねると観測所名を参照できる。

次にクリックすると気象観測と天気予報を参照できる。

マップの切り替え:黒色「×」印の緑ボタンをクリックして拡大、「-」印の緑ボタンをクリックして縮小、緑色の三角印をクリックして隣りの地図に切り替え


METAR-TAF: